Latest Weather Observations for Leinster

IDW60801

Issued at 5:33 pm WST Monday 17 December 2018 (issued every 10 minutes, with the page automatically refreshed every 10 minutes)

About weather observations | Map of weather stations | Latest weather observations for WA | Other Formats
Station Details ID: 012314 Name: LEINSTER AERO Lat: -27.84 Lon: 120.70 Height: 497.0 m
Data from the previous 72 hours. | See also: Recent months at Leinster
Date/Time
WST
Temp
°C
App
Temp
°C
Dew
Point
°C
Rel
Hum
%
Delta-T
°C
Wind Press
QNH
hPa
Press
MSL
hPa
Rain since
9am
mm
Dir  Spd
km/h
Gust
km/h
Spd
kts
Gust
kts
17/05:30pm 26.1 20.6 9.0 34 9.6 SSW 28 39 15 21 1007.2 1003.7 0.0
17/05:00pm 26.3 19.8 8.8 33 9.8 SSW 33 44 18 24 1006.5 1002.9 0.0
17/04:30pm 27.9 21.7 9.2 31 10.6 SSW 32 43 17 23 1005.9 1002.3 0.0
17/04:00pm 27.7 23.5 8.1 29 10.9 S 20 39 11 21 1005.3 1001.8 0.0
17/03:30pm 26.8 22.4 10.5 36 9.4 S 24 35 13 19 1005.5 1001.9 0.0
17/03:00pm 27.4 22.2 10.2 34 9.9 SSW 28 39 15 21 1005.5 1001.9 0.0
17/02:30pm 29.1 24.1 8.2 27 11.7 WSW 24 32 13 17 1005.3 1001.8 0.0
17/02:00pm 27.9 24.4 10.1 33 10.2 SSW 19 33 10 18 1005.3 1001.8 0.0
17/01:30pm 28.9 25.6 9.6 30 11.0 WSW 17 33 9 18 1005.6 1002.0 0.0
17/01:00pm 27.2 23.7 10.8 36 9.5 SW 20 33 11 18 1005.9 1002.3 0.0
17/12:30pm 26.8 22.9 9.6 34 9.7 SW 20 30 11 16 1006.1 1002.5 0.0
17/12:00pm 27.0 21.8 11.5 38 9.1 SSW 30 43 16 23 1005.8 1002.2 0.0
17/11:30am 27.3 22.3 8.2 30 10.6 WSW 24 35 13 19 1006.1 1002.5 0.0
17/11:00am 26.5 21.9 8.0 31 10.2 SW 22 35 12 19 1006.3 1002.7 0.0
17/10:30am 25.6 21.3 7.7 32 9.7 W 20 35 11 19 1006.6 1003.0 0.0
17/10:00am 24.9 19.6 8.4 35 9.1 WSW 26 39 14 21 1006.9 1003.3 0.0
17/09:30am 24.6 19.2 8.1 35 9.0 W 26 35 14 19 1006.8 1003.2 0.0
17/09:00am 24.0 19.0 8.0 36 8.7 SW 24 37 13 20 1006.9 1003.3 0.0
17/08:30am 24.0 19.8 8.4 37 8.5 W 20 28 11 15 1006.7 1003.1 0.0
17/08:00am 22.4 18.8 8.5 41 7.6 W 17 28 9 15 1006.3 1002.7 0.0
17/07:30am 22.2 18.8 9.0 43 7.2 WSW 17 24 9 13 1006.1 1002.5 0.0
17/07:00am 21.3 17.9 9.2 46 6.6 WSW 17 24 9 13 1006.1 1002.5 0.0
17/06:30am 20.3 17.3 9.2 49 6.0 W 15 20 8 11 1005.8 1002.2 0.0
17/06:00am 19.6 16.7 9.5 52 5.5 W 15 20 8 11 1005.5 1001.9 0.0
17/05:30am 19.2 16.3 9.7 54 5.2 W 15 20 8 11 1005.2 1001.6 0.0
17/05:00am 19.1 16.5 9.3 53 5.3 W 13 19 7 10 1004.9 1001.3 0.0
17/04:30am 19.5 16.8 9.1 51 5.6 WNW 13 19 7 10 1004.4 1000.8 0.0
17/04:00am 20.0 16.6 9.3 50 5.8 W 17 22 9 12 1004.3 1000.7 0.0
17/03:30am 20.3 16.9 9.2 49 6.0 W 17 24 9 13 1004.1 1000.5 0.0
17/03:00am 20.8 17.0 9.1 47 6.4 W 19 24 10 13 1004.0 1000.4 0.0
17/02:30am 21.2 17.4 9.1 46 6.6 W 19 26 10 14 1003.7 1000.1 0.0
17/02:00am 21.7 17.3 8.9 44 7.0 W 22 30 12 16 1003.5 999.9 0.0
17/01:35am 22.2 15.7 8.3 41 7.5 W 32 50 17 27 1003.2 999.6 0.0
17/01:30am 22.5 15.7 7.9 39 7.8 W 33 50 18 27 1003.2 999.6 0.0
17/01:00am 23.2 17.7 6.1 33 9.0 W 24 33 13 18 1003.0 999.4 0.0
17/12:30am 23.6 18.5 6.0 32 9.2 W 22 35 12 19 1002.9 999.3 0.0
17/12:00am 24.0 18.9 5.8 31 9.5 W 22 33 12 18 1002.9 999.3 0.0
 
Date/Time
WST
Temp
°C
App
Temp
°C
Dew
Point
°C
Rel
Hum
%
Delta-T
°C
Wind Press
QNH
hPa
Press
MSL
hPa
Rain since
9am
mm
Dir  Spd
km/h
Gust
km/h
Spd
kts
Gust
kts
16/11:30pm 24.5 19.4 5.8 30 9.8 W 22 33 12 18 1002.8 999.2 0.0
16/11:00pm 24.9 20.4 6.1 30 9.9 W 19 28 10 15 1002.9 999.3 0.0
16/10:30pm 25.4 20.7 6.1 29 10.2 W 20 28 11 15 1002.9 999.3 0.0
16/10:00pm 26.0 21.4 6.6 29 10.4 WSW 20 32 11 17 1003.0 999.4 0.0
16/09:30pm 26.4 21.0 6.4 28 10.7 WSW 24 32 13 17 1003.1 999.5 0.0
16/09:00pm 27.0 22.5 6.9 28 10.9 WSW 20 30 11 16 1003.2 999.6 0.0
16/08:30pm 27.8 23.0 4.8 23 12.0 W 19 30 10 16 1003.2 999.6 0.0
16/08:00pm 28.6 24.1 2.0 18 13.4 W 15 20 8 11 1002.9 999.3 0.0
16/07:30pm 29.2 24.5 0.8 16 14.0 WNW 15 24 8 13 1002.8 999.2 0.0
16/07:00pm 29.9 24.5 1.4 16 14.3 WNW 19 28 10 15 1002.5 998.9 0.0
16/06:30pm 30.7 25.4 2.0 16 14.6 WNW 19 28 10 15 1002.1 998.5 0.0
16/06:00pm 31.7 25.9 -1.2 12 16.0 WNW 19 26 10 14 1001.8 998.2 0.0
16/05:30pm 32.5 27.1 -1.7 11 16.5 W 17 28 9 15 1001.4 997.7 0.0
16/05:00pm 32.4 26.4 -1.8 11 16.6 NW 20 37 11 20 1001.1 997.5 0.0
16/04:30pm 32.9 25.8 -1.4 11 16.7 WNW 26 35 14 19 1001.1 997.5 0.0
16/04:00pm 33.7 28.0 -0.8 11 17.1 WNW 19 28 10 15 1001.0 997.4 0.0
16/03:30pm 33.6 27.5 -2.2 10 17.3 W 20 33 11 18 1001.1 997.5 0.0
16/03:00pm 33.1 26.2 -2.6 10 17.2 W 24 35 13 19 1001.4 997.7 0.0
16/02:30pm 33.3 27.4 -1.1 11 16.9 WNW 20 41 11 22 1001.6 997.9 0.0
16/02:00pm 32.4 26.7 0.5 13 16.1 WNW 20 37 11 20 1001.9 998.3 0.0
16/01:30pm 33.0 26.4 -0.2 12 16.5 WNW 24 35 13 19 1002.1 998.5 0.0
16/01:00pm 32.3 26.4 1.4 14 15.8 WNW 22 32 12 17 1002.4 998.8 0.0
16/12:30pm 31.8 26.7 2.9 16 15.0 NW 19 28 10 15 1002.6 999.0 0.0
16/12:00pm 31.7 27.2 6.0 20 14.1 WNW 19 32 10 17 1002.9 999.3 0.0
16/11:30am 29.9 25.3 6.5 23 12.8 WNW 20 32 11 17 1003.4 999.7 0.0
16/11:00am 29.4 25.4 9.0 28 11.6 WNW 20 32 11 17 1003.6 1000.0 0.0
16/10:30am 29.1 25.5 10.7 32 10.7 W 20 28 11 15 1003.9 1000.3 0.0
16/10:00am 27.5 23.7 11.1 36 9.6 WNW 22 32 12 17 1004.2 1000.6 0.0
16/09:30am 26.4 23.4 12.1 41 8.4 W 19 32 10 17 1004.4 1000.8 0.0
16/09:00am 25.3 22.4 12.2 44 7.7 W 19 24 10 13 1004.5 1000.9 0.0
16/08:30am 24.4 21.9 12.4 47 7.0 W 17 26 9 14 1004.5 1000.9 0.0
16/08:00am 24.2 21.4 13.1 50 6.6 W 20 28 11 15 1004.7 1001.1 0.0
16/07:30am 23.7 21.0 13.6 53 6.0 W 20 32 11 17 1004.6 1001.0 0.0
16/07:00am 22.6 19.2 13.7 57 5.3 WSW 24 32 13 17 1004.4 1000.8 0.0
16/06:30am 22.1 18.7 13.7 59 5.0 W 24 32 13 17 1004.0 1000.4 0.0
16/06:00am 21.7 18.6 13.3 59 5.0 WSW 22 35 12 19 1003.9 1000.3 0.0
16/05:30am 22.0 19.2 13.1 57 5.2 WSW 20 28 11 15 1003.6 1000.0 0.0
16/05:00am 22.3 19.9 12.8 55 5.6 WSW 17 26 9 14 1003.2 999.6 0.0
16/04:30am 22.8 20.7 12.4 52 6.0 W 15 20 8 11 1002.7 999.1 0.0
16/04:00am 23.4 21.2 12.1 49 6.6 WSW 15 22 8 12 1002.7 999.1 0.0
16/03:30am 24.0 21.7 11.7 46 7.1 WSW 15 20 8 11 1002.4 998.8 0.0
16/03:00am 24.4 22.1 11.7 45 7.4 WSW 15 19 8 10 1002.1 998.5 0.0
16/02:30am 24.8 21.6 11.4 43 7.7 W 19 24 10 13 1001.6 997.9 0.0
16/02:00am 25.2 23.2 11.4 42 8.0 WSW 13 17 7 9 1001.9 998.3 0.0
16/01:30am 25.9 24.6 11.3 40 8.5 WSW 9 13 5 7 1002.0 998.4 0.0
16/01:00am 26.3 24.5 10.9 38 8.9 WSW 11 15 6 8 1002.1 998.5 0.0
16/12:30am 27.3 25.3 10.1 34 9.8 SW 11 15 6 8 1002.4 998.8 0.0
16/12:00am 27.9 26.2 9.7 32 10.4 WSW 9 11 5 6 1002.7 999.1 0.0
 
Date/Time
WST
Temp
°C
App
Temp
°C
Dew
Point
°C
Rel
Hum
%
Delta-T
°C
Wind Press
QNH
hPa
Press
MSL
hPa
Rain since
9am
mm
Dir  Spd
km/h
Gust
km/h
Spd
kts
Gust
kts
15/11:30pm 28.7 26.8 8.9 29 11.2 WSW 9 13 5 7 1002.8 999.2 0.0
15/11:00pm 29.6 27.6 8.6 27 11.9 SW 9 15 5 8 1003.0 999.4 0.0
15/10:30pm 30.3 27.8 8.1 25 12.5 WSW 11 15 6 8 1002.8 999.2 0.0
15/10:00pm 31.0 26.5 6.8 22 13.4 WSW 20 28 11 15 1002.3 998.7 0.0
15/09:30pm 31.7 27.0 6.0 20 14.0 WSW 20 32 11 17 1002.3 998.7 0.0
15/09:00pm 32.7 27.2 1.7 14 15.9 W 20 30 11 16 1002.0 998.4 0.0
15/08:30pm 33.3 27.8 -2.4 10 17.1 W 17 28 9 15 1001.7 998.1 0.0
15/08:00pm 34.2 27.4 -1.7 10 17.6 W 24 33 13 18 1001.3 997.6 0.0
15/07:30pm 35.1 28.8 -4.1 8 18.5 WNW 20 26 11 14 1000.9 997.3 0.0
15/07:00pm 36.1 29.1 -3.3 8 19.1 W 24 33 13 18 1000.5 996.9 0.0
15/06:30pm 37.8 31.3 -2.1 8 19.8 NW 22 32 12 17 1000.0 996.4 0.0
15/06:00pm 38.9 32.3 -3.1 7 20.8 NW 22 41 12 22 999.8 996.2 0.0
15/05:30pm 39.1 31.4 -2.9 7 20.8 NNW 28 41 15 22 999.6 995.9 0.0
15/05:00pm 39.1 32.5 -2.9 7 20.9 NW 22 32 12 17 999.5 995.8 0.0
15/04:34pm 39.8 32.2 -2.4 7 21.1 NNW 28 46 15 25 999.6 995.9 0.0
15/04:30pm 40.1 33.3 -2.2 7 21.3 NW 24 41 13 22 999.6 995.9 0.0
15/04:00pm 39.8 32.2 -2.4 7 21.3 NNW 28 48 15 26 1000.0 996.4 0.0
15/03:58pm 39.9 31.9 -2.4 7 21.2 NNW 30 48 16 26 1000.0 996.4 0.0
15/03:30pm 39.3 33.6 -1.0 8 20.6 N 19 39 10 21 1000.4 996.8 0.0
15/03:00pm 39.9 34.2 -0.5 8 20.9 N 19 35 10 19 1001.0 997.4 0.0
15/02:30pm 39.2 33.3 -1.1 8 20.5 N 20 43 11 23 1001.6 997.9 0.0
15/02:00pm 39.1 33.4 -1.1 8 20.5 N 19 30 10 16 1002.0 998.4 0.0
15/01:30pm 38.1 31.3 -1.9 8 20.0 N 24 39 13 21 1002.6 999.0 0.0
15/01:00pm 37.3 31.0 -0.9 9 19.4 NE 22 33 12 18 1003.1 999.5 0.0
15/12:30pm 36.8 29.7 -1.2 9 19.0 NE 26 41 14 22 1003.7 1000.1 0.0
15/12:00pm 35.3 30.0 -0.9 10 18.1 NE 17 28 9 15 1004.5 1000.9 0.0
15/11:30am 34.2 28.4 -0.4 11 17.3 NE 20 32 11 17 1005.5 1001.9 0.0
15/11:00am 33.1 27.5 -0.1 12 16.6 NE 19 30 10 16 1006.2 1002.6 0.0
15/10:30am 31.5 25.3 -0.2 13 15.6 NE 22 30 12 16 1006.6 1003.0 0.0
15/10:00am 30.0 23.7 1.5 16 14.3 NNE 24 35 13 19 1007.0 1003.4 0.0
15/09:30am 28.7 22.9 2.1 18 13.4 ENE 22 35 12 19 1007.3 1003.8 0.0
15/09:00am 28.2 22.4 2.4 19 13.0 ENE 22 32 12 17 1007.8 1004.2 0.0
15/08:30am 26.2 20.5 2.8 22 11.7 ENE 22 33 12 18 1008.2 1004.6 0.0
15/08:00am 24.8 18.5 3.5 25 10.7 ENE 26 39 14 21 1008.2 1004.6 0.0
15/07:30am 23.3 17.3 3.3 27 9.9 ENE 24 35 13 19 1008.5 1004.9 0.0
15/07:00am 23.0 17.4 3.5 28 9.7 ENE 22 30 12 16 1008.5 1004.9 0.0
15/06:30am 22.6 17.4 2.7 27 9.7 ENE 19 24 10 13 1008.4 1004.8 0.0
15/06:00am 22.6 17.4 2.7 27 9.7 ENE 19 26 10 14 1008.5 1004.9 0.0
15/05:30am 22.5 17.2 2.1 26 9.8 ENE 19 28 10 15 1008.3 1004.7 0.0
15/05:00am 22.4 17.0 1.4 25 10.0 ENE 19 26 10 14 1007.8 1004.2 0.0
15/04:30am 22.5 16.8 0.4 23 10.3 ENE 20 32 11 17 1007.1 1003.6 0.0
15/04:00am 22.9 17.1 0.1 22 10.6 ENE 20 30 11 16 1007.0 1003.4 0.0
15/03:30am 23.2 17.6 -0.3 21 10.9 ENE 19 26 10 14 1006.9 1003.3 0.0
15/03:00am 23.4 17.8 -0.1 21 11.0 ENE 19 24 10 13 1007.1 1003.6 0.0
15/02:30am 23.7 18.2 0.7 22 10.9 ENE 19 28 10 15 1007.1 1003.6 0.0
15/02:00am 24.1 18.7 1.1 22 11.0 ENE 19 26 10 14 1007.1 1003.6 0.0
15/01:30am 24.6 19.2 1.5 22 11.2 ENE 19 28 10 15 1007.3 1003.8 0.0
15/01:00am 25.0 19.4 1.2 21 11.5 ENE 20 28 11 15 1007.4 1003.9 0.0
15/12:30am 25.4 19.8 1.5 21 11.6 E 20 28 11 15 1007.7 1004.1 0.0
15/12:00am 26.0 20.3 0.6 19 12.2 ENE 20 30 11 16 1008.1 1004.5 0.0
 
Date/Time
WST
Temp
°C
App
Temp
°C
Dew
Point
°C
Rel
Hum
%
Delta-T
°C
Wind Press
QNH
hPa
Press
MSL
hPa
Rain since
9am
mm
Dir  Spd
km/h
Gust
km/h
Spd
kts
Gust
kts
14/11:30pm 26.6 20.5 0.4 18 12.6 ENE 22 33 12 18 1008.0 1004.4 0.0
14/11:00pm 27.1 21.3 0.0 17 13.0 E 20 30 11 16 1008.4 1004.8 0.0
14/10:30pm 27.4 21.5 -0.6 16 13.3 E 20 26 11 14 1008.8 1005.2 0.0
14/10:00pm 27.7 22.8 -0.4 16 13.5 E 15 19 8 10 1009.3 1005.8 0.0
14/09:30pm 28.4 23.8 -0.7 15 13.9 E 13 19 7 10 1009.6 1006.1 0.0
14/09:00pm 28.9 24.8 -0.3 15 14.1 E 11 17 6 9 1009.5 1006.0 0.0
14/08:30pm 30.0 25.7 -1.4 13 15.0 E 11 15 6 8 1009.4 1005.9 0.0
14/08:00pm 30.9 27.0 -1.8 12 15.6 ENE 9 15 5 8 1009.3 1005.8 0.0
14/07:30pm 31.7 28.1 -2.3 11 16.2 ENE 7 9 4 5 1009.1 1005.6 0.0
14/07:00pm 32.4 28.3 -3.1 10 16.8 ENE 9 13 5 7 1008.8 1005.2 0.0
14/06:30pm 33.3 28.0 -3.8 9 17.4 NE 15 20 8 11 1008.6 1005.0 0.0
14/06:00pm 34.2 29.2 -4.7 8 18.1 ENE 13 28 7 15 1008.4 1004.8 0.0

Other Formats:

Comma delimited format used in spreadsheet applications
http://www.bom.gov.au/fwo/IDW60801/IDW60801.95448.axf

JavaScript Object Notation format (JSON) in row-major order
http://www.bom.gov.au/fwo/IDW60801/IDW60801.95448.json